sensor_id;sensor_type;location;lat;lon;timestamp;temperature;humidity
14378;DHT22;7272;53.668;9.578;2023-07-31T00:00:49;16.40;99.90
14378;DHT22;7272;53.668;9.578;2023-07-31T00:03:51;16.30;99.90
14378;DHT22;7272;53.668;9.578;2023-07-31T00:06:52;16.30;99.90
14378;DHT22;7272;53.668;9.578;2023-07-31T00:09:54;16.40;99.90
14378;DHT22;7272;53.668;9.578;2023-07-31T00:12:57;16.40;99.90
14378;DHT22;7272;53.668;9.578;2023-07-31T00:15:59;16.40;99.90
14378;DHT22;7272;53.668;9.578;2023-07-31T00:19:00;16.40;99.90
14378;DHT22;7272;53.668;9.578;2023-07-31T00:22:02;16.40;99.90
14378;DHT22;7272;53.668;9.578;2023-07-31T00:25:04;16.40;99.90
14378;DHT22;7272;53.668;9.578;2023-07-31T00:28:06;16.40;99.90
14378;DHT22;7272;53.668;9.578;2023-07-31T00:31:08;16.40;99.90
14378;DHT22;7272;53.668;9.578;2023-07-31T00:34:09;16.40;99.90
14378;DHT22;7272;53.668;9.578;2023-07-31T00:37:10;16.50;99.90
14378;DHT22;7272;53.668;9.578;2023-07-31T00:40:12;16.50;99.90
14378;DHT22;7272;53.668;9.578;2023-07-31T00:43:14;16.50;99.90
14378;DHT22;7272;53.668;9.578;2023-07-31T00:46:15;16.50;99.90
14378;DHT22;7272;53.668;9.578;2023-07-31T00:49:17;16.40;99.90
14378;DHT22;7272;53.668;9.578;2023-07-31T00:52:19;16.40;99.90
14378;DHT22;7272;53.668;9.578;2023-07-31T00:55:21;16.40;99.90
14378;DHT22;7272;53.668;9.578;2023-07-31T00:58:22;16.40;99.90
14378;DHT22;7272;53.668;9.578;2023-07-31T01:01:23;16.40;99.90
14378;DHT22;7272;53.668;9.578;2023-07-31T01:04:25;16.30;99.90
14378;DHT22;7272;53.668;9.578;2023-07-31T01:07:33;16.30;99.90
14378;DHT22;7272;53.668;9.578;2023-07-31T01:10:41;16.20;99.90
14378;DHT22;7272;53.668;9.578;2023-07-31T01:13:46;16.20;99.90
14378;DHT22;7272;53.668;9.578;2023-07-31T01:16:48;16.20;99.90
14378;DHT22;7272;53.668;9.578;2023-07-31T01:19:50;16.40;99.90
14378;DHT22;7272;53.668;9.578;2023-07-31T01:23:19;16.40;99.90
14378;DHT22;7272;53.668;9.578;2023-07-31T01:26:29;16.40;99.90
14378;DHT22;7272;53.668;9.578;2023-07-31T01:29:40;16.30;99.90
14378;DHT22;7272;53.668;9.578;2023-07-31T01:32:47;16.30;99.90
14378;DHT22;7272;53.668;9.578;2023-07-31T01:35:49;16.20;99.90
14378;DHT22;7272;53.668;9.578;2023-07-31T01:38:50;16.20;99.90
14378;DHT22;7272;53.668;9.578;2023-07-31T01:41:52;16.20;99.90
14378;DHT22;7272;53.668;9.578;2023-07-31T01:44:55;16.20;99.90
14378;DHT22;7272;53.668;9.578;2023-07-31T01:47:56;16.20;99.90
14378;DHT22;7272;53.668;9.578;2023-07-31T01:51:00;16.20;99.90
14378;DHT22;7272;53.668;9.578;2023-07-31T01:54:01;16.20;99.90
14378;DHT22;7272;53.668;9.578;2023-07-31T01:57:04;16.10;99.90
14378;DHT22;7272;53.668;9.578;2023-07-31T02:00:06;16.10;99.90
14378;DHT22;7272;53.668;9.578;2023-07-31T02:03:12;16.10;99.90
14378;DHT22;7272;53.668;9.578;2023-07-31T02:06:14;16.10;99.90
14378;DHT22;7272;53.668;9.578;2023-07-31T02:09:15;16.20;99.90
14378;DHT22;7272;53.668;9.578;2023-07-31T02:12:16;16.20;99.90
14378;DHT22;7272;53.668;9.578;2023-07-31T02:15:18;16.20;99.90
14378;DHT22;7272;53.668;9.578;2023-07-31T02:18:19;16.20;99.90
14378;DHT22;7272;53.668;9.578;2023-07-31T02:21:20;16.20;99.90
14378;DHT22;7272;53.668;9.578;2023-07-31T02:24:21;16.20;99.90
14378;DHT22;7272;53.668;9.578;2023-07-31T02:27:23;16.20;99.90
14378;DHT22;7272;53.668;9.578;2023-07-31T02:30:27;16.20;99.90
14378;DHT22;7272;53.668;9.578;2023-07-31T02:33:29;16.40;99.90
14378;DHT22;7272;53.668;9.578;2023-07-31T02:36:30;16.40;99.90
14378;DHT22;7272;53.668;9.578;2023-07-31T02:39:31;16.40;99.90
14378;DHT22;7272;53.668;9.578;2023-07-31T02:42:33;16.30;99.90
14378;DHT22;7272;53.668;9.578;2023-07-31T02:45:34;16.30;99.90
14378;DHT22;7272;53.668;9.578;2023-07-31T02:48:35;16.30;99.90
14378;DHT22;7272;53.668;9.578;2023-07-31T02:51:36;16.30;99.90
14378;DHT22;7272;53.668;9.578;2023-07-31T02:54:37;16.30;99.90
14378;DHT22;7272;53.668;9.578;2023-07-31T02:57:39;16.40;99.90
14378;DHT22;7272;53.668;9.578;2023-07-31T03:00:42;16.30;99.90
14378;DHT22;7272;53.668;9.578;2023-07-31T03:03:43;16.30;99.90
14378;DHT22;7272;53.668;9.578;2023-07-31T03:06:46;16.40;99.90
14378;DHT22;7272;53.668;9.578;2023-07-31T03:09:47;16.40;99.90
14378;DHT22;7272;53.668;9.578;2023-07-31T03:12:50;16.40;99.90
14378;DHT22;7272;53.668;9.578;2023-07-31T03:15:51;16.40;99.90
14378;DHT22;7272;53.668;9.578;2023-07-31T03:18:52;16.50;99.90
14378;DHT22;7272;53.668;9.578;2023-07-31T03:21:53;16.40;99.90
14378;DHT22;7272;53.668;9.578;2023-07-31T03:24:54;16.40;99.90
14378;DHT22;7272;53.668;9.578;2023-07-31T03:27:56;16.40;99.90
14378;DHT22;7272;53.668;9.578;2023-07-31T03:30:57;16.50;99.90
14378;DHT22;7272;53.668;9.578;2023-07-31T03:33:59;16.50;99.90
14378;DHT22;7272;53.668;9.578;2023-07-31T03:37:00;16.50;99.90
14378;DHT22;7272;53.668;9.578;2023-07-31T03:40:01;16.50;99.90
14378;DHT22;7272;53.668;9.578;2023-07-31T03:43:06;16.50;99.90
14378;DHT22;7272;53.668;9.578;2023-07-31T03:46:07;16.70;99.90
14378;DHT22;7272;53.668;9.578;2023-07-31T03:49:08;16.70;99.90
14378;DHT22;7272;53.668;9.578;2023-07-31T03:52:09;16.70;99.90
14378;DHT22;7272;53.668;9.578;2023-07-31T03:55:11;16.70;99.90
14378;DHT22;7272;53.668;9.578;2023-07-31T03:58:12;16.70;99.90
14378;DHT22;7272;53.668;9.578;2023-07-31T04:01:13;16.80;99.90
14378;DHT22;7272;53.668;9.578;2023-07-31T04:04:15;16.80;99.90
14378;DHT22;7272;53.668;9.578;2023-07-31T04:07:16;16.80;99.90
14378;DHT22;7272;53.668;9.578;2023-07-31T04:10:17;16.80;99.90
14378;DHT22;7272;53.668;9.578;2023-07-31T04:13:19;16.80;99.90
14378;DHT22;7272;53.668;9.578;2023-07-31T04:16:20;16.80;99.90
14378;DHT22;7272;53.668;9.578;2023-07-31T04:19:21;16.80;99.90
14378;DHT22;7272;53.668;9.578;2023-07-31T04:22:22;16.80;99.90
14378;DHT22;7272;53.668;9.578;2023-07-31T04:25:24;16.80;99.90
14378;DHT22;7272;53.668;9.578;2023-07-31T04:28:25;16.80;99.90
14378;DHT22;7272;53.668;9.578;2023-07-31T04:31:27;16.90;99.90
14378;DHT22;7272;53.668;9.578;2023-07-31T04:34:28;17.00;99.90
14378;DHT22;7272;53.668;9.578;2023-07-31T04:37:29;17.00;99.90
14378;DHT22;7272;53.668;9.578;2023-07-31T04:40:31;17.00;99.90
14378;DHT22;7272;53.668;9.578;2023-07-31T04:43:33;17.00;99.90
14378;DHT22;7272;53.668;9.578;2023-07-31T04:46:34;17.00;99.90
14378;DHT22;7272;53.668;9.578;2023-07-31T04:49:36;16.90;99.90
14378;DHT22;7272;53.668;9.578;2023-07-31T04:52:37;16.90;99.90
14378;DHT22;7272;53.668;9.578;2023-07-31T04:55:38;17.00;99.90
14378;DHT22;7272;53.668;9.578;2023-07-31T04:58:40;17.00;99.90
14378;DHT22;7272;53.668;9.578;2023-07-31T05:01:41;17.00;99.90
14378;DHT22;7272;53.668;9.578;2023-07-31T05:04:43;17.00;99.90
14378;DHT22;7272;53.668;9.578;2023-07-31T05:07:44;17.00;99.90
14378;DHT22;7272;53.668;9.578;2023-07-31T05:10:45;16.90;99.90
14378;DHT22;7272;53.668;9.578;2023-07-31T05:13:47;16.90;99.90
14378;DHT22;7272;53.668;9.578;2023-07-31T05:16:48;16.90;99.90
14378;DHT22;7272;53.668;9.578;2023-07-31T05:19:49;16.90;99.90
14378;DHT22;7272;53.668;9.578;2023-07-31T05:22:51;17.00;99.90
14378;DHT22;7272;53.668;9.578;2023-07-31T05:25:52;17.00;99.90
14378;DHT22;7272;53.668;9.578;2023-07-31T05:28:54;17.00;99.90
14378;DHT22;7272;53.668;9.578;2023-07-31T05:31:55;17.00;99.90
14378;DHT22;7272;53.668;9.578;2023-07-31T05:34:56;17.00;99.90
14378;DHT22;7272;53.668;9.578;2023-07-31T05:37:57;16.90;99.90
14378;DHT22;7272;53.668;9.578;2023-07-31T05:40:58;16.90;99.90
14378;DHT22;7272;53.668;9.578;2023-07-31T05:44:00;17.10;99.90
14378;DHT22;7272;53.668;9.578;2023-07-31T05:47:01;17.20;99.90
14378;DHT22;7272;53.668;9.578;2023-07-31T05:50:03;17.20;99.90
14378;DHT22;7272;53.668;9.578;2023-07-31T05:53:04;17.20;99.90
14378;DHT22;7272;53.668;9.578;2023-07-31T05:56:05;17.10;99.90
14378;DHT22;7272;53.668;9.578;2023-07-31T05:59:08;17.10;99.90
14378;DHT22;7272;53.668;9.578;2023-07-31T06:02:09;17.20;99.90
14378;DHT22;7272;53.668;9.578;2023-07-31T06:05:11;17.20;99.90
14378;DHT22;7272;53.668;9.578;2023-07-31T06:08:12;17.10;99.90
14378;DHT22;7272;53.668;9.578;2023-07-31T06:11:13;17.10;99.90
14378;DHT22;7272;53.668;9.578;2023-07-31T06:14:15;17.00;99.90
14378;DHT22;7272;53.668;9.578;2023-07-31T06:17:16;17.10;99.90
14378;DHT22;7272;53.668;9.578;2023-07-31T06:20:17;17.10;99.90
14378;DHT22;7272;53.668;9.578;2023-07-31T06:23:18;17.10;99.90
14378;DHT22;7272;53.668;9.578;2023-07-31T06:26:20;17.10;99.90
14378;DHT22;7272;53.668;9.578;2023-07-31T06:29:21;17.20;99.90
14378;DHT22;7272;53.668;9.578;2023-07-31T06:32:23;17.30;99.90
14378;DHT22;7272;53.668;9.578;2023-07-31T06:35:24;17.30;99.90
14378;DHT22;7272;53.668;9.578;2023-07-31T06:38:26;17.40;99.90
14378;DHT22;7272;53.668;9.578;2023-07-31T06:41:28;17.40;99.90
14378;DHT22;7272;53.668;9.578;2023-07-31T06:44:29;17.50;99.90
14378;DHT22;7272;53.668;9.578;2023-07-31T06:47:31;17.50;99.90
14378;DHT22;7272;53.668;9.578;2023-07-31T06:50:32;17.50;99.90
14378;DHT22;7272;53.668;9.578;2023-07-31T06:53:34;17.50;99.90
14378;DHT22;7272;53.668;9.578;2023-07-31T06:56:35;17.60;99.90
14378;DHT22;7272;53.668;9.578;2023-07-31T06:59:37;17.60;99.90
14378;DHT22;7272;53.668;9.578;2023-07-31T07:02:39;17.60;99.90
14378;DHT22;7272;53.668;9.578;2023-07-31T07:05:40;17.60;99.90
14378;DHT22;7272;53.668;9.578;2023-07-31T07:08:41;17.60;99.90
14378;DHT22;7272;53.668;9.578;2023-07-31T07:11:42;17.60;99.90
14378;DHT22;7272;53.668;9.578;2023-07-31T07:14:44;17.70;99.90
14378;DHT22;7272;53.668;9.578;2023-07-31T07:17:46;17.70;99.90
14378;DHT22;7272;53.668;9.578;2023-07-31T07:20:49;17.70;99.90
14378;DHT22;7272;53.668;9.578;2023-07-31T07:23:50;17.60;99.90
14378;DHT22;7272;53.668;9.578;2023-07-31T07:26:51;17.60;99.90
14378;DHT22;7272;53.668;9.578;2023-07-31T07:29:53;17.60;99.90
14378;DHT22;7272;53.668;9.578;2023-07-31T07:32:54;17.60;99.90
14378;DHT22;7272;53.668;9.578;2023-07-31T07:35:59;17.70;99.90
14378;DHT22;7272;53.668;9.578;2023-07-31T07:39:00;18.00;99.90
14378;DHT22;7272;53.668;9.578;2023-07-31T07:42:01;18.10;99.90
14378;DHT22;7272;53.668;9.578;2023-07-31T07:45:04;18.10;99.90
14378;DHT22;7272;53.668;9.578;2023-07-31T07:48:06;18.10;99.90
14378;DHT22;7272;53.668;9.578;2023-07-31T07:51:07;18.10;99.90
14378;DHT22;7272;53.668;9.578;2023-07-31T07:54:08;18.20;99.90
14378;DHT22;7272;53.668;9.578;2023-07-31T07:57:10;18.20;99.90
14378;DHT22;7272;53.668;9.578;2023-07-31T08:00:12;18.20;99.90
14378;DHT22;7272;53.668;9.578;2023-07-31T08:03:17;18.20;99.90
14378;DHT22;7272;53.668;9.578;2023-07-31T08:06:18;18.20;99.90
14378;DHT22;7272;53.668;9.578;2023-07-31T08:09:19;18.20;99.90
14378;DHT22;7272;53.668;9.578;2023-07-31T08:12:20;18.20;99.90
14378;DHT22;7272;53.668;9.578;2023-07-31T08:15:22;18.20;99.90
14378;DHT22;7272;53.668;9.578;2023-07-31T08:18:23;18.20;99.90
14378;DHT22;7272;53.668;9.578;2023-07-31T08:21:25;18.20;99.90
14378;DHT22;7272;53.668;9.578;2023-07-31T08:24:26;18.20;99.90
14378;DHT22;7272;53.668;9.578;2023-07-31T08:27:27;18.10;99.90
14378;DHT22;7272;53.668;9.578;2023-07-31T08:30:29;18.20;99.90
14378;DHT22;7272;53.668;9.578;2023-07-31T08:33:30;18.20;99.90
14378;DHT22;7272;53.668;9.578;2023-07-31T08:36:32;18.20;99.90
14378;DHT22;7272;53.668;9.578;2023-07-31T08:39:33;18.20;99.90
14378;DHT22;7272;53.668;9.578;2023-07-31T08:42:40;18.20;99.90
14378;DHT22;7272;53.668;9.578;2023-07-31T08:45:44;18.30;99.90
14378;DHT22;7272;53.668;9.578;2023-07-31T08:48:45;18.40;99.90
14378;DHT22;7272;53.668;9.578;2023-07-31T08:51:50;18.40;99.90
14378;DHT22;7272;53.668;9.578;2023-07-31T08:54:51;18.40;99.90
14378;DHT22;7272;53.668;9.578;2023-07-31T08:57:52;18.40;99.90
14378;DHT22;7272;53.668;9.578;2023-07-31T09:00:55;18.40;99.90
14378;DHT22;7272;53.668;9.578;2023-07-31T09:03:59;18.50;99.90
14378;DHT22;7272;53.668;9.578;2023-07-31T09:07:03;18.60;99.90
14378;DHT22;7272;53.668;9.578;2023-07-31T09:10:05;18.60;99.90
14378;DHT22;7272;53.668;9.578;2023-07-31T09:13:07;18.60;99.90
14378;DHT22;7272;53.668;9.578;2023-07-31T09:16:09;18.60;99.90
14378;DHT22;7272;53.668;9.578;2023-07-31T09:19:10;18.60;99.90
14378;DHT22;7272;53.668;9.578;2023-07-31T09:22:12;18.70;99.90
14378;DHT22;7272;53.668;9.578;2023-07-31T09:25:18;18.70;99.90
14378;DHT22;7272;53.668;9.578;2023-07-31T09:28:31;18.60;99.90
14378;DHT22;7272;53.668;9.578;2023-07-31T09:31:40;18.70;99.90
14378;DHT22;7272;53.668;9.578;2023-07-31T09:34:41;18.70;99.90
14378;DHT22;7272;53.668;9.578;2023-07-31T09:37:42;18.70;99.90
14378;DHT22;7272;53.668;9.578;2023-07-31T09:40:47;18.60;99.90
14378;DHT22;7272;53.668;9.578;2023-07-31T09:43:53;18.60;99.90
14378;DHT22;7272;53.668;9.578;2023-07-31T09:46:55;18.60;99.90
14378;DHT22;7272;53.668;9.578;2023-07-31T09:49:56;18.50;99.90
14378;DHT22;7272;53.668;9.578;2023-07-31T09:52:57;18.60;99.90
14378;DHT22;7272;53.668;9.578;2023-07-31T09:55:59;18.80;99.90
14378;DHT22;7272;53.668;9.578;2023-07-31T09:59:02;18.80;99.90
14378;DHT22;7272;53.668;9.578;2023-07-31T10:02:09;18.70;99.90
14378;DHT22;7272;53.668;9.578;2023-07-31T10:05:13;18.60;99.90
14378;DHT22;7272;53.668;9.578;2023-07-31T10:08:16;18.70;99.90
14378;DHT22;7272;53.668;9.578;2023-07-31T10:11:19;18.60;99.90
14378;DHT22;7272;53.668;9.578;2023-07-31T10:14:21;18.80;99.90
14378;DHT22;7272;53.668;9.578;2023-07-31T10:17:25;19.00;99.90
14378;DHT22;7272;53.668;9.578;2023-07-31T10:20:28;19.00;99.90
14378;DHT22;7272;53.668;9.578;2023-07-31T10:23:30;18.90;99.90
14378;DHT22;7272;53.668;9.578;2023-07-31T10:26:32;18.90;99.90
14378;DHT22;7272;53.668;9.578;2023-07-31T10:29:35;18.90;99.90
14378;DHT22;7272;53.668;9.578;2023-07-31T10:32:40;18.80;99.90
14378;DHT22;7272;53.668;9.578;2023-07-31T10:35:41;18.90;99.90
14378;DHT22;7272;53.668;9.578;2023-07-31T10:38:42;19.00;99.90
14378;DHT22;7272;53.668;9.578;2023-07-31T10:41:43;18.90;99.90
14378;DHT22;7272;53.668;9.578;2023-07-31T10:44:46;18.90;99.90
14378;DHT22;7272;53.668;9.578;2023-07-31T10:47:48;18.90;99.90
14378;DHT22;7272;53.668;9.578;2023-07-31T10:50:50;18.80;99.90
14378;DHT22;7272;53.668;9.578;2023-07-31T10:54:10;18.70;99.90
14378;DHT22;7272;53.668;9.578;2023-07-31T10:57:21;18.60;99.90
14378;DHT22;7272;53.668;9.578;2023-07-31T11:00:25;18.80;99.90
14378;DHT22;7272;53.668;9.578;2023-07-31T11:03:40;18.70;99.90
14378;DHT22;7272;53.668;9.578;2023-07-31T11:06:55;18.70;99.90
14378;DHT22;7272;53.668;9.578;2023-07-31T11:09:56;18.60;99.90
14378;DHT22;7272;53.668;9.578;2023-07-31T11:12:58;18.50;99.90
14378;DHT22;7272;53.668;9.578;2023-07-31T11:15:59;18.50;99.90
14378;DHT22;7272;53.668;9.578;2023-07-31T11:19:01;18.50;99.90
14378;DHT22;7272;53.668;9.578;2023-07-31T11:22:02;18.70;99.90
14378;DHT22;7272;53.668;9.578;2023-07-31T11:25:05;18.70;99.90
14378;DHT22;7272;53.668;9.578;2023-07-31T11:28:09;18.70;99.90
14378;DHT22;7272;53.668;9.578;2023-07-31T11:31:10;18.70;99.90
14378;DHT22;7272;53.668;9.578;2023-07-31T11:34:12;18.70;99.90
14378;DHT22;7272;53.668;9.578;2023-07-31T11:37:13;18.70;99.90
14378;DHT22;7272;53.668;9.578;2023-07-31T11:40:15;18.60;99.90
14378;DHT22;7272;53.668;9.578;2023-07-31T11:43:16;18.50;99.90
14378;DHT22;7272;53.668;9.578;2023-07-31T11:46:18;18.30;99.90
14378;DHT22;7272;53.668;9.578;2023-07-31T11:49:21;18.30;99.90
14378;DHT22;7272;53.668;9.578;2023-07-31T11:52:22;18.30;99.90
14378;DHT22;7272;53.668;9.578;2023-07-31T11:55:24;18.20;99.90
14378;DHT22;7272;53.668;9.578;2023-07-31T11:58:27;18.10;99.90
14378;DHT22;7272;53.668;9.578;2023-07-31T12:01:29;18.10;99.90
14378;DHT22;7272;53.668;9.578;2023-07-31T12:04:31;18.20;99.90
14378;DHT22;7272;53.668;9.578;2023-07-31T12:07:46;18.20;99.90
14378;DHT22;7272;53.668;9.578;2023-07-31T12:10:50;18.20;99.90
14378;DHT22;7272;53.668;9.578;2023-07-31T12:13:51;18.20;99.90
14378;DHT22;7272;53.668;9.578;2023-07-31T12:16:56;18.20;99.90
14378;DHT22;7272;53.668;9.578;2023-07-31T12:19:58;18.20;99.90
14378;DHT22;7272;53.668;9.578;2023-07-31T12:22:59;18.30;99.90
14378;DHT22;7272;53.668;9.578;2023-07-31T12:26:01;18.30;99.90
14378;DHT22;7272;53.668;9.578;2023-07-31T12:29:07;18.40;99.90
14378;DHT22;7272;53.668;9.578;2023-07-31T12:32:21;18.40;99.90
14378;DHT22;7272;53.668;9.578;2023-07-31T12:35:23;18.40;99.90
14378;DHT22;7272;53.668;9.578;2023-07-31T12:38:24;18.40;99.90
14378;DHT22;7272;53.668;9.578;2023-07-31T12:41:26;18.50;99.90
14378;DHT22;7272;53.668;9.578;2023-07-31T12:44:27;18.50;99.90
14378;DHT22;7272;53.668;9.578;2023-07-31T12:47:29;18.50;99.90
14378;DHT22;7272;53.668;9.578;2023-07-31T12:50:31;18.40;99.90
14378;DHT22;7272;53.668;9.578;2023-07-31T12:53:32;18.40;99.90
14378;DHT22;7272;53.668;9.578;2023-07-31T12:56:33;18.40;99.90
14378;DHT22;7272;53.668;9.578;2023-07-31T12:59:35;18.40;99.90
14378;DHT22;7272;53.668;9.578;2023-07-31T13:02:36;18.30;99.90
14378;DHT22;7272;53.668;9.578;2023-07-31T13:05:38;18.30;99.90
14378;DHT22;7272;53.668;9.578;2023-07-31T13:08:39;18.40;99.90
14378;DHT22;7272;53.668;9.578;2023-07-31T13:11:40;18.40;99.90
14378;DHT22;7272;53.668;9.578;2023-07-31T13:14:41;18.40;99.90
14378;DHT22;7272;53.668;9.578;2023-07-31T13:17:42;18.50;99.90
14378;DHT22;7272;53.668;9.578;2023-07-31T13:20:44;18.70;99.90
14378;DHT22;7272;53.668;9.578;2023-07-31T13:23:45;18.80;99.90
14378;DHT22;7272;53.668;9.578;2023-07-31T13:26:46;18.80;99.90
14378;DHT22;7272;53.668;9.578;2023-07-31T13:29:48;18.80;99.90
14378;DHT22;7272;53.668;9.578;2023-07-31T13:32:49;18.70;99.90
14378;DHT22;7272;53.668;9.578;2023-07-31T13:35:51;18.60;99.90
14378;DHT22;7272;53.668;9.578;2023-07-31T13:38:52;18.50;99.90
14378;DHT22;7272;53.668;9.578;2023-07-31T13:41:53;18.40;99.90
14378;DHT22;7272;53.668;9.578;2023-07-31T13:44:56;18.50;99.90
14378;DHT22;7272;53.668;9.578;2023-07-31T13:47:57;18.50;99.90
14378;DHT22;7272;53.668;9.578;2023-07-31T13:50:59;18.50;99.90
14378;DHT22;7272;53.668;9.578;2023-07-31T13:54:01;18.50;99.90
14378;DHT22;7272;53.668;9.578;2023-07-31T13:57:02;18.60;99.90
14378;DHT22;7272;53.668;9.578;2023-07-31T14:00:05;18.60;99.90
14378;DHT22;7272;53.668;9.578;2023-07-31T14:03:07;18.70;99.90
14378;DHT22;7272;53.668;9.578;2023-07-31T14:06:09;18.80;99.90
14378;DHT22;7272;53.668;9.578;2023-07-31T14:09:10;18.70;99.90
14378;DHT22;7272;53.668;9.578;2023-07-31T14:12:11;18.60;99.90
14378;DHT22;7272;53.668;9.578;2023-07-31T14:15:13;18.60;99.90
14378;DHT22;7272;53.668;9.578;2023-07-31T14:18:14;18.60;99.90
14378;DHT22;7272;53.668;9.578;2023-07-31T14:21:16;18.70;99.90
14378;DHT22;7272;53.668;9.578;2023-07-31T14:24:17;18.90;99.90
14378;DHT22;7272;53.668;9.578;2023-07-31T14:27:18;19.00;99.90
14378;DHT22;7272;53.668;9.578;2023-07-31T14:30:20;19.00;99.90
14378;DHT22;7272;53.668;9.578;2023-07-31T14:33:21;18.90;99.90
14378;DHT22;7272;53.668;9.578;2023-07-31T14:36:23;18.80;99.90
14378;DHT22;7272;53.668;9.578;2023-07-31T14:39:24;18.80;99.90
14378;DHT22;7272;53.668;9.578;2023-07-31T14:42:25;18.90;99.90
14378;DHT22;7272;53.668;9.578;2023-07-31T14:45:26;18.90;99.90
14378;DHT22;7272;53.668;9.578;2023-07-31T14:48:27;18.70;99.90
14378;DHT22;7272;53.668;9.578;2023-07-31T14:51:30;18.70;99.90
14378;DHT22;7272;53.668;9.578;2023-07-31T14:54:31;18.70;99.90
14378;DHT22;7272;53.668;9.578;2023-07-31T14:57:33;18.70;99.90
14378;DHT22;7272;53.668;9.578;2023-07-31T15:00:34;18.70;99.90
14378;DHT22;7272;53.668;9.578;2023-07-31T15:03:35;18.70;99.90
14378;DHT22;7272;53.668;9.578;2023-07-31T15:06:37;18.60;99.90
14378;DHT22;7272;53.668;9.578;2023-07-31T15:09:38;18.50;99.90
14378;DHT22;7272;53.668;9.578;2023-07-31T15:12:40;18.40;99.90
14378;DHT22;7272;53.668;9.578;2023-07-31T15:15:41;18.40;99.90
14378;DHT22;7272;53.668;9.578;2023-07-31T15:18:42;18.40;99.90
14378;DHT22;7272;53.668;9.578;2023-07-31T15:21:44;18.50;99.90
14378;DHT22;7272;53.668;9.578;2023-07-31T15:24:45;18.50;99.90
14378;DHT22;7272;53.668;9.578;2023-07-31T15:27:47;18.50;99.90
14378;DHT22;7272;53.668;9.578;2023-07-31T15:30:48;18.40;99.90
14378;DHT22;7272;53.668;9.578;2023-07-31T15:33:49;18.50;99.90
14378;DHT22;7272;53.668;9.578;2023-07-31T15:36:51;18.40;99.90
14378;DHT22;7272;53.668;9.578;2023-07-31T15:39:52;18.40;99.90
14378;DHT22;7272;53.668;9.578;2023-07-31T15:42:53;18.50;99.90
14378;DHT22;7272;53.668;9.578;2023-07-31T15:45:54;18.60;99.90
14378;DHT22;7272;53.668;9.578;2023-07-31T15:48:55;18.70;99.90
14378;DHT22;7272;53.668;9.578;2023-07-31T15:51:57;18.70;99.90
14378;DHT22;7272;53.668;9.578;2023-07-31T15:54:58;18.80;99.90
14378;DHT22;7272;53.668;9.578;2023-07-31T15:57:59;18.80;99.90
14378;DHT22;7272;53.668;9.578;2023-07-31T16:01:01;18.80;99.90
14378;DHT22;7272;53.668;9.578;2023-07-31T16:04:02;18.80;99.90
14378;DHT22;7272;53.668;9.578;2023-07-31T16:07:04;18.90;99.90
14378;DHT22;7272;53.668;9.578;2023-07-31T16:10:07;19.00;99.90
14378;DHT22;7272;53.668;9.578;2023-07-31T16:13:09;19.00;99.90
14378;DHT22;7272;53.668;9.578;2023-07-31T16:16:10;19.10;99.90
14378;DHT22;7272;53.668;9.578;2023-07-31T16:19:11;19.10;99.90
14378;DHT22;7272;53.668;9.578;2023-07-31T16:22:13;19.10;99.90
14378;DHT22;7272;53.668;9.578;2023-07-31T16:25:15;19.10;99.90
14378;DHT22;7272;53.668;9.578;2023-07-31T16:28:16;19.10;99.90
14378;DHT22;7272;53.668;9.578;2023-07-31T16:31:17;19.10;99.90
14378;DHT22;7272;53.668;9.578;2023-07-31T16:34:18;19.20;99.90
14378;DHT22;7272;53.668;9.578;2023-07-31T16:37:20;19.20;99.90
14378;DHT22;7272;53.668;9.578;2023-07-31T16:40:21;19.20;99.90
14378;DHT22;7272;53.668;9.578;2023-07-31T16:43:23;19.20;99.90
14378;DHT22;7272;53.668;9.578;2023-07-31T16:46:24;19.20;99.90
14378;DHT22;7272;53.668;9.578;2023-07-31T16:49:25;19.30;99.90
14378;DHT22;7272;53.668;9.578;2023-07-31T16:52:27;19.40;99.90
14378;DHT22;7272;53.668;9.578;2023-07-31T16:55:28;19.50;99.90
14378;DHT22;7272;53.668;9.578;2023-07-31T16:58:30;19.50;99.90
14378;DHT22;7272;53.668;9.578;2023-07-31T17:01:31;19.50;99.90
14378;DHT22;7272;53.668;9.578;2023-07-31T17:04:33;19.60;99.90
14378;DHT22;7272;53.668;9.578;2023-07-31T17:07:35;19.70;99.90
14378;DHT22;7272;53.668;9.578;2023-07-31T17:10:36;19.80;99.90
14378;DHT22;7272;53.668;9.578;2023-07-31T17:13:37;19.80;99.90
14378;DHT22;7272;53.668;9.578;2023-07-31T17:16:39;19.70;99.90
14378;DHT22;7272;53.668;9.578;2023-07-31T17:19:40;19.70;99.90
14378;DHT22;7272;53.668;9.578;2023-07-31T17:22:42;19.70;99.90
14378;DHT22;7272;53.668;9.578;2023-07-31T17:25:45;19.70;99.90
14378;DHT22;7272;53.668;9.578;2023-07-31T17:28:46;19.70;99.90
14378;DHT22;7272;53.668;9.578;2023-07-31T17:31:47;19.80;99.90
14378;DHT22;7272;53.668;9.578;2023-07-31T17:34:48;19.70;99.90
14378;DHT22;7272;53.668;9.578;2023-07-31T17:37:50;19.70;99.90
14378;DHT22;7272;53.668;9.578;2023-07-31T17:40:51;19.70;99.90
14378;DHT22;7272;53.668;9.578;2023-07-31T17:43:52;19.70;99.90
14378;DHT22;7272;53.668;9.578;2023-07-31T17:46:54;19.70;99.90
14378;DHT22;7272;53.668;9.578;2023-07-31T17:49:55;19.70;99.90
14378;DHT22;7272;53.668;9.578;2023-07-31T17:52:58;19.70;99.90
14378;DHT22;7272;53.668;9.578;2023-07-31T17:55:59;19.60;99.90
14378;DHT22;7272;53.668;9.578;2023-07-31T17:59:00;19.60;99.90
14378;DHT22;7272;53.668;9.578;2023-07-31T18:02:01;19.60;99.90
14378;DHT22;7272;53.668;9.578;2023-07-31T18:05:03;19.60;99.90
14378;DHT22;7272;53.668;9.578;2023-07-31T18:08:05;19.70;99.90
14378;DHT22;7272;53.668;9.578;2023-07-31T18:11:07;19.70;99.90
14378;DHT22;7272;53.668;9.578;2023-07-31T18:14:08;19.70;99.90
14378;DHT22;7272;53.668;9.578;2023-07-31T18:17:09;19.70;99.90
14378;DHT22;7272;53.668;9.578;2023-07-31T18:20:12;19.70;99.90
14378;DHT22;7272;53.668;9.578;2023-07-31T18:23:14;19.70;99.90
14378;DHT22;7272;53.668;9.578;2023-07-31T18:26:15;19.60;99.90
14378;DHT22;7272;53.668;9.578;2023-07-31T18:29:16;19.60;99.90
14378;DHT22;7272;53.668;9.578;2023-07-31T18:32:17;19.70;99.90
14378;DHT22;7272;53.668;9.578;2023-07-31T18:35:18;19.70;99.90
14378;DHT22;7272;53.668;9.578;2023-07-31T18:38:20;19.60;99.90
14378;DHT22;7272;53.668;9.578;2023-07-31T18:41:21;19.50;99.90
14378;DHT22;7272;53.668;9.578;2023-07-31T18:44:22;19.50;99.90
14378;DHT22;7272;53.668;9.578;2023-07-31T18:47:24;19.50;99.90
14378;DHT22;7272;53.668;9.578;2023-07-31T18:50:25;19.50;99.90
14378;DHT22;7272;53.668;9.578;2023-07-31T18:53:27;19.40;99.90
14378;DHT22;7272;53.668;9.578;2023-07-31T18:56:28;19.40;99.90
14378;DHT22;7272;53.668;9.578;2023-07-31T18:59:29;19.40;99.90
14378;DHT22;7272;53.668;9.578;2023-07-31T19:02:30;19.30;99.90
14378;DHT22;7272;53.668;9.578;2023-07-31T19:05:32;19.30;99.90
14378;DHT22;7272;53.668;9.578;2023-07-31T19:08:34;19.30;99.90
14378;DHT22;7272;53.668;9.578;2023-07-31T19:11:35;19.30;99.90
14378;DHT22;7272;53.668;9.578;2023-07-31T19:14:36;19.30;99.90
14378;DHT22;7272;53.668;9.578;2023-07-31T19:17:38;19.30;99.90
14378;DHT22;7272;53.668;9.578;2023-07-31T19:20:39;19.20;99.90
14378;DHT22;7272;53.668;9.578;2023-07-31T19:23:41;19.20;99.90
14378;DHT22;7272;53.668;9.578;2023-07-31T19:26:42;19.20;99.90